createdAt,value
2017-03-12T00:00:05.497Z,932.18
2017-03-12T00:00:33.844Z,932.22
2017-03-12T00:01:02.141Z,932.14
2017-03-12T00:01:30.356Z,932.23
2017-03-12T00:01:58.797Z,932.17
2017-03-12T00:02:27.175Z,932.15
2017-03-12T00:02:55.607Z,932.2
2017-03-12T00:03:23.917Z,932.16
2017-03-12T00:03:52.296Z,932.15
2017-03-12T00:04:20.718Z,932.19
2017-03-12T00:04:49.134Z,932.19
2017-03-12T00:05:17.367Z,932.19
2017-03-12T00:05:45.632Z,932.21
2017-03-12T00:06:14.174Z,932.2
2017-03-12T00:06:42.411Z,932.19
2017-03-12T00:07:10.721Z,932.22
2017-03-12T00:07:38.961Z,932.2
2017-03-12T00:08:07.265Z,932.3
2017-03-12T00:08:35.505Z,932.29
2017-03-12T00:09:03.727Z,932.24
2017-03-12T00:09:31.997Z,932.24
2017-03-12T00:10:00.123Z,932.24
2017-03-12T00:10:28.435Z,932.31
2017-03-12T00:10:56.553Z,932.29
2017-03-12T00:11:24.954Z,932.25
2017-03-12T00:11:53.170Z,932.29
2017-03-12T00:12:21.653Z,932.33
2017-03-12T00:12:50.144Z,932.27
2017-03-12T00:13:18.595Z,932.32
2017-03-12T00:13:47.134Z,932.32
2017-03-12T00:14:15.455Z,932.29
2017-03-12T00:14:43.748Z,932.3
2017-03-12T00:15:11.778Z,932.38
2017-03-12T00:15:40.045Z,932.31
2017-03-12T00:16:08.547Z,932.3
2017-03-12T00:16:37.029Z,932.29
2017-03-12T00:17:05.289Z,932.29
2017-03-12T00:17:33.647Z,932.28
2017-03-12T00:18:01.957Z,932.27
2017-03-12T00:18:30.048Z,932.25
2017-03-12T00:18:58.309Z,932.29
2017-03-12T00:19:26.578Z,932.25
2017-03-12T00:19:55.023Z,932.25
2017-03-12T00:20:23.515Z,932.28
2017-03-12T00:20:51.876Z,932.28
2017-03-12T00:21:20.290Z,932.27
2017-03-12T00:21:48.785Z,932.26
2017-03-12T00:22:17.147Z,932.27
2017-03-12T00:22:45.494Z,932.21
2017-03-12T00:23:13.669Z,932.29
2017-03-12T00:23:41.979Z,932.24
2017-03-12T00:24:10.080Z,932.26
2017-03-12T00:24:38.515Z,932.23
2017-03-12T00:25:06.664Z,932.21
2017-03-12T00:25:35.039Z,932.24
2017-03-12T00:26:03.365Z,932.23
2017-03-12T00:26:31.596Z,932.19
2017-03-12T00:26:59.637Z,932.18
2017-03-12T00:27:27.886Z,932.19
2017-03-12T00:27:56.305Z,932.2
2017-03-12T00:28:24.861Z,932.2
2017-03-12T00:28:53.249Z,932.19
2017-03-12T00:29:21.700Z,932.19
2017-03-12T00:29:50.156Z,932.19
2017-03-12T00:30:19.050Z,932.2
2017-03-12T00:30:47.702Z,932.23
2017-03-12T00:31:16.192Z,932.22
2017-03-12T00:31:44.759Z,932.24
2017-03-12T00:32:13.215Z,932.27
2017-03-12T00:32:41.550Z,932.25
2017-03-12T00:33:10.094Z,932.25
2017-03-12T00:33:38.595Z,932.25
2017-03-12T00:34:07.807Z,932.23
2017-03-12T00:34:36.193Z,932.26
2017-03-12T00:35:04.777Z,932.26
2017-03-12T00:35:33.447Z,932.25
2017-03-12T00:36:01.807Z,932.26
2017-03-12T00:36:30.078Z,932.25
2017-03-12T00:36:58.475Z,932.24
2017-03-12T00:37:26.998Z,932.24
2017-03-12T00:37:55.344Z,932.27
2017-03-12T00:38:23.603Z,932.24
2017-03-12T00:38:51.846Z,932.2
2017-03-12T00:39:20.232Z,932.23
2017-03-12T00:39:49.489Z,932.27
2017-03-12T00:40:17.728Z,932.22
2017-03-12T00:40:46.015Z,932.22
2017-03-12T00:41:14.342Z,932.25
2017-03-12T00:41:42.814Z,932.18
2017-03-12T00:42:11.258Z,932.23
2017-03-12T00:42:39.724Z,932.24
2017-03-12T00:43:08.154Z,932.24
2017-03-12T00:43:36.400Z,932.24
2017-03-12T00:44:04.854Z,932.29
2017-03-12T00:44:33.302Z,932.33
2017-03-12T00:45:01.704Z,932.27
2017-03-12T00:45:30.336Z,932.31
2017-03-12T00:45:58.795Z,932.36
2017-03-12T00:46:27.169Z,932.3
2017-03-12T00:46:55.525Z,932.26
2017-03-12T00:47:23.865Z,932.31
2017-03-12T00:47:52.190Z,932.26
2017-03-12T00:48:20.587Z,932.29
2017-03-12T00:48:48.936Z,932.41
2017-03-12T00:49:17.221Z,932.33
2017-03-12T00:49:45.483Z,932.31
2017-03-12T00:50:14.187Z,932.37
2017-03-12T00:50:42.493Z,932.35
2017-03-12T00:51:10.902Z,932.39
2017-03-12T00:51:39.214Z,932.34
2017-03-12T00:52:07.542Z,932.31
2017-03-12T00:52:35.812Z,932.39
2017-03-12T00:53:04.339Z,932.29
2017-03-12T00:53:32.768Z,932.35
2017-03-12T00:54:00.953Z,932.27
2017-03-12T00:54:29.401Z,932.28
2017-03-12T00:54:57.780Z,932.3
2017-03-12T00:55:26.476Z,932.39
2017-03-12T00:55:54.724Z,932.28
2017-03-12T00:56:23.200Z,932.31
2017-03-12T00:56:51.375Z,932.29
2017-03-12T00:57:19.500Z,932.28
2017-03-12T00:57:47.710Z,932.26
2017-03-12T00:58:16.067Z,932.37
2017-03-12T00:58:44.479Z,932.3
2017-03-12T00:59:12.629Z,932.23
2017-03-12T00:59:40.936Z,932.33
2017-03-12T01:00:09.266Z,932.27
2017-03-12T01:00:37.803Z,932.26
2017-03-12T01:01:06.286Z,932.29
2017-03-12T01:01:34.554Z,932.29
2017-03-12T01:02:03.021Z,932.26
2017-03-12T01:02:31.271Z,932.28
2017-03-12T01:02:59.593Z,932.26
2017-03-12T01:03:28.129Z,932.27
2017-03-12T01:03:56.466Z,932.32
2017-03-12T01:04:24.827Z,932.3
2017-03-12T01:04:53.214Z,932.27
2017-03-12T01:05:21.644Z,932.28
2017-03-12T01:05:49.957Z,932.29
2017-03-12T01:06:18.007Z,932.26
2017-03-12T01:06:46.445Z,932.23
2017-03-12T01:07:14.644Z,932.24
2017-03-12T01:07:43.386Z,932.23
2017-03-12T01:08:11.601Z,932.2
2017-03-12T01:08:39.941Z,932.21
2017-03-12T01:09:08.260Z,932.3
2017-03-12T01:09:36.450Z,932.18
2017-03-12T01:10:04.931Z,932.18
2017-03-12T01:10:33.276Z,932.19
2017-03-12T01:11:01.671Z,932.16
2017-03-12T01:11:30.047Z,932.21
2017-03-12T01:11:58.381Z,932.15
2017-03-12T01:12:26.737Z,932.22
2017-03-12T01:12:55.194Z,932.18
2017-03-12T01:13:23.426Z,932.2
2017-03-12T01:13:51.698Z,932.12
2017-03-12T01:14:20.010Z,932.14
2017-03-12T01:14:48.223Z,932.13
2017-03-12T01:15:16.587Z,932.17
2017-03-12T01:15:44.894Z,932.14
2017-03-12T01:16:13.182Z,932.19
2017-03-12T01:16:41.461Z,932.17
2017-03-12T01:17:09.665Z,932.2
2017-03-12T01:17:37.914Z,932.18
2017-03-12T01:18:06.301Z,932.21
2017-03-12T01:18:34.576Z,932.22
2017-03-12T01:19:02.824Z,932.22
2017-03-12T01:19:31.172Z,932.21
2017-03-12T01:19:59.263Z,932.29
2017-03-12T01:20:27.685Z,932.29
2017-03-12T01:20:55.950Z,932.22
2017-03-12T01:21:24.360Z,932.27
2017-03-12T01:21:52.742Z,932.28
2017-03-12T01:22:20.907Z,932.28
2017-03-12T01:22:49.541Z,932.25
2017-03-12T01:23:17.859Z,932.22
2017-03-12T01:23:46.013Z,932.23
2017-03-12T01:24:14.307Z,932.22
2017-03-12T01:24:42.816Z,932.2
2017-03-12T01:25:11.200Z,932.2
2017-03-12T01:25:39.608Z,932.23
2017-03-12T01:26:07.963Z,932.17
2017-03-12T01:26:36.513Z,932.21
2017-03-12T01:27:04.771Z,932.13
2017-03-12T01:27:33.179Z,932.2
2017-03-12T01:28:01.717Z,932.18
2017-03-12T01:28:30.067Z,932.18
2017-03-12T01:28:58.362Z,932.15
2017-03-12T01:29:26.667Z,932.12
2017-03-12T01:29:54.976Z,932.14
2017-03-12T01:30:23.318Z,932.18
2017-03-12T01:30:51.696Z,932.13
2017-03-12T01:31:20.110Z,932.13
2017-03-12T01:31:48.502Z,932.13
2017-03-12T01:32:16.837Z,932.1
2017-03-12T01:32:45.204Z,932.08
2017-03-12T01:33:13.543Z,932.06
2017-03-12T01:33:42.018Z,932.08
2017-03-12T01:34:10.307Z,932.05
2017-03-12T01:34:38.709Z,932.08
2017-03-12T01:35:07.007Z,932.14
2017-03-12T01:35:35.525Z,932.1
2017-03-12T01:36:03.819Z,932.09
2017-03-12T01:36:32.064Z,932.14
2017-03-12T01:37:00.370Z,932.06
2017-03-12T01:37:28.750Z,932.07
2017-03-12T01:37:57.068Z,932.18
2017-03-12T01:38:25.388Z,932.1
2017-03-12T01:38:53.678Z,932.12
2017-03-12T01:39:21.901Z,932.13
2017-03-12T01:39:50.199Z,932.1
2017-03-12T01:40:18.679Z,932.12
2017-03-12T01:40:47.120Z,932.09
2017-03-12T01:41:15.529Z,932.12
2017-03-12T01:41:43.764Z,932.08
2017-03-12T01:42:12.225Z,932.13
2017-03-12T01:42:40.645Z,932.11
2017-03-12T01:43:08.998Z,932.08
2017-03-12T01:43:37.592Z,932.07
2017-03-12T01:44:05.839Z,932.08
2017-03-12T01:44:34.001Z,932.09
2017-03-12T01:45:02.273Z,932.07
2017-03-12T01:45:30.634Z,932.03
2017-03-12T01:45:59.143Z,932.04
2017-03-12T01:46:27.527Z,932.03
2017-03-12T01:46:55.913Z,932.02
2017-03-12T01:47:24.330Z,932.06
2017-03-12T01:47:52.664Z,932.04
2017-03-12T01:48:21.030Z,932.02
2017-03-12T01:48:49.444Z,932.05
2017-03-12T01:49:17.839Z,932.12
2017-03-12T01:49:46.226Z,932
2017-03-12T01:50:14.420Z,932.03
2017-03-12T01:50:42.767Z,932.03
2017-03-12T01:51:11.157Z,932.02
2017-03-12T01:51:39.429Z,932.01
2017-03-12T01:52:07.795Z,932.02
2017-03-12T01:52:36.187Z,932.02
2017-03-12T01:53:04.542Z,932.01
2017-03-12T01:53:32.821Z,932.01
2017-03-12T01:54:01.637Z,931.98
2017-03-12T01:54:30.010Z,932.05
2017-03-12T01:54:58.382Z,932.01
2017-03-12T01:55:26.956Z,931.99
2017-03-12T01:55:55.531Z,931.99
2017-03-12T01:56:23.931Z,931.97
2017-03-12T01:56:52.502Z,931.99
2017-03-12T01:57:20.806Z,931.99
2017-03-12T01:57:49.195Z,932.01
2017-03-12T01:58:17.549Z,932.04
2017-03-12T01:58:45.902Z,931.99
2017-03-12T01:59:14.709Z,932.03
2017-03-12T01:59:42.743Z,932.05
2017-03-12T02:00:11.070Z,932
2017-03-12T02:00:39.470Z,931.96
2017-03-12T02:01:07.864Z,932.01
2017-03-12T02:01:36.197Z,931.98
2017-03-12T02:02:04.487Z,931.96
2017-03-12T02:02:32.894Z,931.96
2017-03-12T02:03:01.192Z,931.99
2017-03-12T02:03:29.548Z,931.99
2017-03-12T02:03:57.657Z,931.96
2017-03-12T02:04:25.908Z,932.02
2017-03-12T02:04:54.195Z,932
2017-03-12T02:05:22.349Z,932
2017-03-12T02:05:50.641Z,932.01
2017-03-12T02:06:19.095Z,931.98
2017-03-12T02:06:47.484Z,932.01
2017-03-12T02:07:16.597Z,931.98
2017-03-12T02:07:44.926Z,931.98
2017-03-12T02:08:13.369Z,931.96
2017-03-12T02:08:41.575Z,931.96
2017-03-12T02:09:09.876Z,931.96
2017-03-12T02:09:38.146Z,931.91
2017-03-12T02:10:06.431Z,931.9
2017-03-12T02:10:34.742Z,931.9
2017-03-12T02:11:02.846Z,931.89
2017-03-12T02:11:31.250Z,931.91
2017-03-12T02:11:59.742Z,931.88
2017-03-12T02:12:28.168Z,931.91
2017-03-12T02:12:56.468Z,931.86
2017-03-12T02:13:24.953Z,931.88
2017-03-12T02:13:53.554Z,931.85
2017-03-12T02:14:21.934Z,931.84
2017-03-12T02:14:50.179Z,931.88
2017-03-12T02:15:18.406Z,931.87
2017-03-12T02:15:46.875Z,931.86
2017-03-12T02:16:15.167Z,931.85
2017-03-12T02:16:43.609Z,931.86
2017-03-12T02:17:11.880Z,931.84
2017-03-12T02:17:40.428Z,931.82
2017-03-12T02:18:08.891Z,931.83
2017-03-12T02:18:37.175Z,931.86
2017-03-12T02:19:05.459Z,931.88
2017-03-12T02:19:33.582Z,931.84
2017-03-12T02:20:01.911Z,931.83
2017-03-12T02:20:30.245Z,931.83
2017-03-12T02:20:58.593Z,931.83
2017-03-12T02:21:27.469Z,931.85
2017-03-12T02:21:55.710Z,931.81
2017-03-12T02:22:24.109Z,931.81
2017-03-12T02:22:52.496Z,931.82
2017-03-12T02:23:20.937Z,931.79
2017-03-12T02:23:49.209Z,931.79
2017-03-12T02:24:17.361Z,931.78
2017-03-12T02:24:45.607Z,931.77
2017-03-12T02:25:13.821Z,931.78
2017-03-12T02:25:42.240Z,931.74
2017-03-12T02:26:10.546Z,931.78
2017-03-12T02:26:38.921Z,931.73
2017-03-12T02:27:07.398Z,931.73
2017-03-12T02:27:35.742Z,931.74
2017-03-12T02:28:04.127Z,931.7
2017-03-12T02:28:32.619Z,931.69
2017-03-12T02:29:01.007Z,931.71
2017-03-12T02:29:29.207Z,931.68
2017-03-12T02:29:57.284Z,931.7
2017-03-12T02:30:25.529Z,931.65
2017-03-12T02:30:53.921Z,931.65
2017-03-12T02:31:22.186Z,931.64
2017-03-12T02:31:50.499Z,931.64
2017-03-12T02:32:18.975Z,931.64
2017-03-12T02:32:47.730Z,931.62
2017-03-12T02:33:16.060Z,931.65
2017-03-12T02:33:44.424Z,931.67
2017-03-12T02:34:12.845Z,931.63
2017-03-12T02:34:41.113Z,931.62
2017-03-12T02:35:10.219Z,931.59
2017-03-12T02:35:38.797Z,931.61
2017-03-12T02:36:07.309Z,931.62
2017-03-12T02:36:35.593Z,931.58
2017-03-12T02:37:04.166Z,931.58
2017-03-12T02:37:32.485Z,931.56
2017-03-12T02:38:00.797Z,931.55
2017-03-12T02:38:29.249Z,931.54
2017-03-12T02:38:57.561Z,931.51
2017-03-12T02:39:25.932Z,931.51
2017-03-12T02:39:54.410Z,931.49
2017-03-12T02:40:22.849Z,931.52
2017-03-12T02:40:51.328Z,931.53
2017-03-12T02:41:19.594Z,931.5
2017-03-12T02:41:48.039Z,931.5
2017-03-12T02:42:16.481Z,931.54
2017-03-12T02:42:44.861Z,931.47
2017-03-12T02:43:13.316Z,931.49
2017-03-12T02:43:41.856Z,931.46
2017-03-12T02:44:10.285Z,931.47
2017-03-12T02:44:38.680Z,931.45
2017-03-12T02:45:07.098Z,931.44
2017-03-12T02:45:35.349Z,931.44
2017-03-12T02:46:03.723Z,931.43
2017-03-12T02:46:32.143Z,931.43
2017-03-12T02:47:00.686Z,931.44
2017-03-12T02:47:29.047Z,931.4
2017-03-12T02:47:57.412Z,931.39
2017-03-12T02:48:25.617Z,931.41
2017-03-12T02:48:53.950Z,931.43
2017-03-12T02:49:22.336Z,931.42
2017-03-12T02:49:50.764Z,931.38
2017-03-12T02:50:19.092Z,931.37
2017-03-12T02:50:47.526Z,931.43
2017-03-12T02:51:15.878Z,931.39
2017-03-12T02:51:44.299Z,931.37
2017-03-12T02:52:12.634Z,931.41
2017-03-12T02:52:40.863Z,931.41
2017-03-12T02:53:09.240Z,931.41
2017-03-12T02:53:37.506Z,931.39
2017-03-12T02:54:05.792Z,931.41
2017-03-12T02:54:34.087Z,931.44
2017-03-12T02:55:02.613Z,931.42
2017-03-12T02:55:30.956Z,931.41
2017-03-12T02:55:59.440Z,931.4
2017-03-12T02:56:27.595Z,931.43
2017-03-12T02:56:56.037Z,931.44
2017-03-12T02:57:24.301Z,931.42
2017-03-12T02:57:52.565Z,931.46
2017-03-12T02:58:20.776Z,931.46
2017-03-12T02:58:49.044Z,931.46
2017-03-12T02:59:17.440Z,931.46
2017-03-12T02:59:45.908Z,931.45
2017-03-12T03:00:14.343Z,931.45
2017-03-12T03:00:42.663Z,931.46
2017-03-12T03:01:11.073Z,931.43
2017-03-12T03:01:39.379Z,931.45
2017-03-12T03:02:07.580Z,931.42
2017-03-12T03:02:36.008Z,931.42
2017-03-12T03:03:04.277Z,931.4
2017-03-12T03:03:32.781Z,931.4
2017-03-12T03:04:01.114Z,931.36
2017-03-12T03:04:29.478Z,931.38
2017-03-12T03:04:57.895Z,931.37
2017-03-12T03:05:26.086Z,931.32
2017-03-12T03:05:54.816Z,931.36
2017-03-12T03:06:23.246Z,931.32
2017-03-12T03:06:51.566Z,931.3
2017-03-12T03:07:19.949Z,931.33
2017-03-12T03:07:48.223Z,931.27
2017-03-12T03:08:16.587Z,931.3
2017-03-12T03:08:45.006Z,931.28
2017-03-12T03:09:13.395Z,931.3
2017-03-12T03:09:42.174Z,931.24
2017-03-12T03:10:10.549Z,931.26
2017-03-12T03:10:39.047Z,931.28
2017-03-12T03:11:07.783Z,931.27
2017-03-12T03:11:36.173Z,931.28
2017-03-12T03:12:04.287Z,931.25
2017-03-12T03:12:32.582Z,931.25
2017-03-12T03:13:01.092Z,931.25
2017-03-12T03:13:29.528Z,931.23
2017-03-12T03:13:57.852Z,931.25
2017-03-12T03:14:26.363Z,931.24
2017-03-12T03:14:55.584Z,931.23
2017-03-12T03:15:24.005Z,931.21
2017-03-12T03:15:52.366Z,931.21
2017-03-12T03:16:20.917Z,931.21
2017-03-12T03:16:49.438Z,931.18
2017-03-12T03:17:17.833Z,931.17
2017-03-12T03:17:46.159Z,931.19
2017-03-12T03:18:14.491Z,931.16
2017-03-12T03:18:42.964Z,931.14
2017-03-12T03:19:11.195Z,931.13
2017-03-12T03:19:39.545Z,931.13
2017-03-12T03:20:07.891Z,931.1
2017-03-12T03:20:36.345Z,931.13
2017-03-12T03:21:04.869Z,931.09
2017-03-12T03:21:33.077Z,931.12
2017-03-12T03:22:01.597Z,931.09
2017-03-12T03:22:29.930Z,931.11
2017-03-12T03:22:58.374Z,931.09
2017-03-12T03:23:26.771Z,931.09
2017-03-12T03:23:55.164Z,931.07
2017-03-12T03:24:23.491Z,931.08
2017-03-12T03:24:51.688Z,931.09
2017-03-12T03:25:19.960Z,931.09
2017-03-12T03:25:48.273Z,931.06
2017-03-12T03:26:16.451Z,931.08
2017-03-12T03:26:44.844Z,931.05
2017-03-12T03:27:13.243Z,931.06
2017-03-12T03:27:41.518Z,931.05
2017-03-12T03:28:09.869Z,931.05
2017-03-12T03:28:38.097Z,931.05
2017-03-12T03:29:06.169Z,931.06
2017-03-12T03:29:34.350Z,931.07
2017-03-12T03:30:02.754Z,931.08
2017-03-12T03:30:31.047Z,931.05
2017-03-12T03:30:59.498Z,931.05
2017-03-12T03:31:27.907Z,931.05
2017-03-12T03:31:56.211Z,931.06
2017-03-12T03:32:24.478Z,931.06
2017-03-12T03:32:52.667Z,931.08
2017-03-12T03:33:20.943Z,931.02
2017-03-12T03:33:49.103Z,931.03
2017-03-12T03:34:17.492Z,930.99
2017-03-12T03:34:45.696Z,930.99
2017-03-12T03:35:13.877Z,931.04
2017-03-12T03:35:42.166Z,931.02
2017-03-12T03:36:10.091Z,930.99
2017-03-12T03:36:38.178Z,930.99
2017-03-12T03:37:06.533Z,930.95
2017-03-12T03:37:34.867Z,931
2017-03-12T03:38:03.239Z,930.97
2017-03-12T03:38:31.536Z,930.97
2017-03-12T03:38:59.811Z,930.95
2017-03-12T03:39:28.126Z,930.99
2017-03-12T03:39:56.413Z,930.97
2017-03-12T03:40:24.763Z,931.01
2017-03-12T03:40:52.932Z,930.99
2017-03-12T03:41:21.331Z,931
2017-03-12T03:41:49.624Z,930.97
2017-03-12T03:42:17.880Z,930.97
2017-03-12T03:42:46.098Z,930.99
2017-03-12T03:43:14.501Z,930.97
2017-03-12T03:43:42.763Z,930.96
2017-03-12T03:44:10.952Z,930.98
2017-03-12T03:44:38.991Z,930.97
2017-03-12T03:45:07.346Z,930.94
2017-03-12T03:45:35.648Z,930.95
2017-03-12T03:46:04.038Z,930.96
2017-03-12T03:46:32.418Z,930.96
2017-03-12T03:47:00.740Z,930.94
2017-03-12T03:47:29.013Z,930.97
2017-03-12T03:47:57.141Z,930.97
2017-03-12T03:48:25.357Z,930.92
2017-03-12T03:48:53.582Z,930.92
2017-03-12T03:49:21.789Z,930.95
2017-03-12T03:49:50.186Z,930.94
2017-03-12T03:50:18.467Z,930.93
2017-03-12T03:50:46.696Z,930.92
2017-03-12T03:51:14.853Z,930.91
2017-03-12T03:51:43.144Z,930.9
2017-03-12T03:52:11.452Z,930.9
2017-03-12T03:52:39.708Z,930.89
2017-03-12T03:53:07.755Z,930.88
2017-03-12T03:53:36.085Z,930.86
2017-03-12T03:54:04.274Z,930.87
2017-03-12T03:54:32.530Z,930.87
2017-03-12T03:55:00.721Z,930.86
2017-03-12T03:55:28.977Z,930.85
2017-03-12T03:55:57.273Z,930.84
2017-03-12T03:56:25.627Z,930.83
2017-03-12T03:56:53.795Z,930.83
2017-03-12T03:57:22.096Z,930.86
2017-03-12T03:57:50.324Z,930.83
2017-03-12T03:58:18.668Z,930.85
2017-03-12T03:58:46.903Z,930.83
2017-03-12T03:59:14.990Z,930.8
2017-03-12T03:59:43.113Z,930.84
2017-03-12T04:00:11.314Z,930.83
2017-03-12T04:00:39.559Z,930.84
2017-03-12T04:01:07.754Z,930.85
2017-03-12T04:01:35.887Z,930.84
2017-03-12T04:02:04.029Z,930.84
2017-03-12T04:02:32.147Z,930.83
2017-03-12T04:03:00.258Z,930.84
2017-03-12T04:03:28.566Z,930.86
2017-03-12T04:03:56.788Z,930.79
2017-03-12T04:04:25.119Z,930.8
2017-03-12T04:04:53.414Z,930.8
2017-03-12T04:05:21.703Z,930.8
2017-03-12T04:05:49.988Z,930.79
2017-03-12T04:06:18.176Z,930.8
2017-03-12T04:06:46.469Z,930.76
2017-03-12T04:07:14.605Z,930.78
2017-03-12T04:07:42.910Z,930.76
2017-03-12T04:08:11.234Z,930.78
2017-03-12T04:08:39.316Z,930.75
2017-03-12T04:09:07.527Z,930.76
2017-03-12T04:09:35.834Z,930.71
2017-03-12T04:10:04.038Z,930.72
2017-03-12T04:10:32.317Z,930.7
2017-03-12T04:11:00.341Z,930.69
2017-03-12T04:11:28.709Z,930.73
2017-03-12T04:11:56.991Z,930.74
2017-03-12T04:12:25.168Z,930.69
2017-03-12T04:12:53.340Z,930.75
2017-03-12T04:13:21.640Z,930.71
2017-03-12T04:13:49.901Z,930.76
2017-03-12T04:14:18.180Z,930.73
2017-03-12T04:14:46.201Z,930.7
2017-03-12T04:15:14.444Z,930.73
2017-03-12T04:15:42.688Z,930.72
2017-03-12T04:16:11.054Z,930.71
2017-03-12T04:16:39.511Z,930.72
2017-03-12T04:17:07.716Z,930.71
2017-03-12T04:17:36.004Z,930.71
2017-03-12T04:18:04.278Z,930.71
2017-03-12T04:18:32.509Z,930.7
2017-03-12T04:19:00.790Z,930.69
2017-03-12T04:19:28.967Z,930.64
2017-03-12T04:19:57.113Z,930.66
2017-03-12T04:20:25.335Z,930.65
2017-03-12T04:20:53.516Z,930.63
2017-03-12T04:21:21.730Z,930.63
2017-03-12T04:21:50.004Z,930.64
2017-03-12T04:22:18.275Z,930.61
2017-03-12T04:22:46.414Z,930.63
2017-03-12T04:23:14.752Z,930.59
2017-03-12T04:23:42.872Z,930.61
2017-03-12T04:24:11.141Z,930.6
2017-03-12T04:24:39.357Z,930.61
2017-03-12T04:25:07.541Z,930.57
2017-03-12T04:25:35.859Z,930.59
2017-03-12T04:26:04.068Z,930.63
2017-03-12T04:26:32.266Z,930.54
2017-03-12T04:27:00.452Z,930.54
2017-03-12T04:27:28.685Z,930.55
2017-03-12T04:27:56.946Z,930.55
2017-03-12T04:28:25.092Z,930.55
2017-03-12T04:28:53.422Z,930.56
2017-03-12T04:29:21.608Z,930.55
2017-03-12T04:29:49.883Z,930.55
2017-03-12T04:30:17.813Z,930.52
2017-03-12T04:30:45.985Z,930.54
2017-03-12T04:31:14.101Z,930.5
2017-03-12T04:31:42.484Z,930.52
2017-03-12T04:32:10.675Z,930.49
2017-03-12T04:32:38.898Z,930.48
2017-03-12T04:33:07.061Z,930.48
2017-03-12T04:33:35.317Z,930.45
2017-03-12T04:34:03.587Z,930.46
2017-03-12T04:34:31.867Z,930.44
2017-03-12T04:35:00.036Z,930.44
2017-03-12T04:35:28.218Z,930.42
2017-03-12T04:35:56.518Z,930.42
2017-03-12T04:36:24.595Z,930.4
2017-03-12T04:36:52.913Z,930.41
2017-03-12T04:37:21.220Z,930.41
2017-03-12T04:37:49.488Z,930.39
2017-03-12T04:38:17.743Z,930.42
2017-03-12T04:38:45.956Z,930.4
2017-03-12T04:39:14.249Z,930.41
2017-03-12T04:39:42.554Z,930.43
2017-03-12T04:40:10.679Z,930.43
2017-03-12T04:40:38.844Z,930.43
2017-03-12T04:41:07.122Z,930.42
2017-03-12T04:41:35.494Z,930.42
2017-03-12T04:42:03.751Z,930.41
2017-03-12T04:42:32.043Z,930.43
2017-03-12T04:43:00.327Z,930.38
2017-03-12T04:43:28.598Z,930.42
2017-03-12T04:43:56.715Z,930.41
2017-03-12T04:44:24.847Z,930.4
2017-03-12T04:44:53.082Z,930.39
2017-03-12T04:45:21.378Z,930.39
2017-03-12T04:45:49.551Z,930.42
2017-03-12T04:46:17.723Z,930.41
2017-03-12T04:46:45.983Z,930.42
2017-03-12T04:47:14.237Z,930.38
2017-03-12T04:47:42.515Z,930.42
2017-03-12T04:48:10.629Z,930.4
2017-03-12T04:48:38.780Z,930.41
2017-03-12T04:49:07.023Z,930.39
2017-03-12T04:49:35.302Z,930.39
2017-03-12T04:50:03.587Z,930.38
2017-03-12T04:50:31.861Z,930.44
2017-03-12T04:51:00.066Z,930.38
2017-03-12T04:51:28.451Z,930.37
2017-03-12T04:51:56.692Z,930.39
2017-03-12T04:52:25.006Z,930.39
2017-03-12T04:52:53.290Z,930.36
2017-03-12T04:53:21.598Z,930.35
2017-03-12T04:53:49.773Z,930.33
2017-03-12T04:54:17.960Z,930.37
2017-03-12T04:54:46.161Z,930.32
2017-03-12T04:55:14.304Z,930.32
2017-03-12T04:55:42.623Z,930.28
2017-03-12T04:56:10.894Z,930.28
2017-03-12T04:56:39.169Z,930.27
2017-03-12T04:57:07.461Z,930.28
2017-03-12T04:57:35.589Z,930.25
2017-03-12T04:58:03.875Z,930.27
2017-03-12T04:58:32.017Z,930.26
2017-03-12T04:59:00.319Z,930.21
2017-03-12T04:59:28.573Z,930.21
2017-03-12T04:59:56.742Z,930.22
2017-03-12T05:00:24.969Z,930.24
2017-03-12T05:00:53.187Z,930.2
2017-03-12T05:01:21.306Z,930.21
2017-03-12T05:01:49.698Z,930.18
2017-03-12T05:02:17.795Z,930.17
2017-03-12T05:02:46.047Z,930.16
2017-03-12T05:03:14.279Z,930.2
2017-03-12T05:03:42.517Z,930.18
2017-03-12T05:04:10.732Z,930.2
2017-03-12T05:04:38.948Z,930.15
2017-03-12T05:05:07.169Z,930.18
2017-03-12T05:05:35.429Z,930.2
2017-03-12T05:06:03.652Z,930.16
2017-03-12T05:06:31.962Z,930.21
2017-03-12T05:07:00.243Z,930.13
2017-03-12T05:07:28.555Z,930.15
2017-03-12T05:07:56.756Z,930.13
2017-03-12T05:08:24.962Z,930.15
2017-03-12T05:08:53.171Z,930.15
2017-03-12T05:09:21.400Z,930.12
2017-03-12T05:09:49.540Z,930.15
2017-03-12T05:10:17.736Z,930.15
2017-03-12T05:10:45.942Z,930.15
2017-03-12T05:11:14.146Z,930.12
2017-03-12T05:11:42.522Z,930.19
2017-03-12T05:12:10.688Z,930.21
2017-03-12T05:12:38.864Z,930.15
2017-03-12T05:13:07.036Z,930.15
2017-03-12T05:13:35.251Z,930.13
2017-03-12T05:14:03.330Z,930.14
2017-03-12T05:14:31.439Z,930.13
2017-03-12T05:14:59.660Z,930.13
2017-03-12T05:15:27.744Z,930.1
2017-03-12T05:15:55.951Z,930.12
2017-03-12T05:16:24.277Z,930.09
2017-03-12T05:16:52.431Z,930.09
2017-03-12T05:17:20.646Z,930.05
2017-03-12T05:17:48.801Z,930.02
2017-03-12T05:18:16.971Z,930.06
2017-03-12T05:18:45.225Z,930.02
2017-03-12T05:19:13.493Z,930.03
2017-03-12T05:19:41.582Z,930.04
2017-03-12T05:20:09.745Z,930.01
2017-03-12T05:20:37.950Z,930.01
2017-03-12T05:21:06.243Z,929.99
2017-03-12T05:21:34.455Z,929.97
2017-03-12T05:22:02.896Z,929.98
2017-03-12T05:22:31.169Z,929.97
2017-03-12T05:22:59.506Z,929.96
2017-03-12T05:23:27.535Z,929.93
2017-03-12T05:23:55.797Z,929.92
2017-03-12T05:24:23.866Z,929.89
2017-03-12T05:24:52.045Z,929.89
2017-03-12T05:25:20.331Z,929.91
2017-03-12T05:25:48.543Z,929.89
2017-03-12T05:26:16.868Z,929.88
2017-03-12T05:26:44.970Z,929.86
2017-03-12T05:27:13.160Z,929.87
2017-03-12T05:27:41.365Z,929.87
2017-03-12T05:28:09.552Z,929.87
2017-03-12T05:28:37.711Z,929.84
2017-03-12T05:29:05.981Z,929.85
2017-03-12T05:29:34.155Z,929.8
2017-03-12T05:30:02.449Z,929.82
2017-03-12T05:30:30.728Z,929.78
2017-03-12T05:30:58.933Z,929.78
2017-03-12T05:31:27.002Z,929.78
2017-03-12T05:31:55.408Z,929.77
2017-03-12T05:32:23.533Z,929.74
2017-03-12T05:32:51.727Z,929.73
2017-03-12T05:33:20.010Z,929.75
2017-03-12T05:33:48.226Z,929.71
2017-03-12T05:34:16.520Z,929.73
2017-03-12T05:34:44.677Z,929.71
2017-03-12T05:35:12.792Z,929.71
2017-03-12T05:35:40.938Z,929.65
2017-03-12T05:36:09.176Z,929.65
2017-03-12T05:36:37.398Z,929.67
2017-03-12T05:37:05.582Z,929.6
2017-03-12T05:37:33.854Z,929.65
2017-03-12T05:38:01.991Z,929.63
2017-03-12T05:38:30.601Z,929.62
2017-03-12T05:38:58.890Z,929.61
2017-03-12T05:39:27.140Z,929.59
2017-03-12T05:39:55.328Z,929.56
2017-03-12T05:40:23.323Z,929.55
2017-03-12T05:40:51.462Z,929.55
2017-03-12T05:41:19.566Z,929.55
2017-03-12T05:41:47.929Z,929.51
2017-03-12T05:42:16.036Z,929.5
2017-03-12T05:42:44.235Z,929.5
2017-03-12T05:43:12.237Z,929.47
2017-03-12T05:43:40.385Z,929.5
2017-03-12T05:44:08.583Z,929.5
2017-03-12T05:44:36.801Z,929.48
2017-03-12T05:45:05.014Z,929.45
2017-03-12T05:45:33.283Z,929.42
2017-03-12T05:46:01.506Z,929.43
2017-03-12T05:46:29.683Z,929.44
2017-03-12T05:46:57.965Z,929.44
2017-03-12T05:47:26.229Z,929.43
2017-03-12T05:47:54.440Z,929.42
2017-03-12T05:48:22.713Z,929.4
2017-03-12T05:48:50.825Z,929.4
2017-03-12T05:49:18.981Z,929.39
2017-03-12T05:49:47.078Z,929.37
2017-03-12T05:50:15.373Z,929.38
2017-03-12T05:50:43.632Z,929.37
2017-03-12T05:51:11.753Z,929.37
2017-03-12T05:51:39.978Z,929.38
2017-03-12T05:52:08.218Z,929.39
2017-03-12T05:52:36.383Z,929.37
2017-03-12T05:53:04.654Z,929.37
2017-03-12T05:53:32.862Z,929.38
2017-03-12T05:54:01.106Z,929.35
2017-03-12T05:54:29.280Z,929.37